createdAt,value
2022-11-30T00:02:17.450Z,35.72
2022-11-30T00:07:20.986Z,38.97
2022-11-30T00:12:24.375Z,38.63
2022-11-30T00:17:29.053Z,37.70
2022-11-30T00:22:32.409Z,37.33
2022-11-30T00:27:36.664Z,39.60
2022-11-30T00:32:41.377Z,36.70
2022-11-30T00:37:45.051Z,38.47
2022-11-30T00:42:48.432Z,39.55
2022-11-30T00:47:53.152Z,39.45
2022-11-30T00:52:57.578Z,36.97
2022-11-30T00:58:01.430Z,41.58
2022-11-30T01:03:06.354Z,39.83
2022-11-30T01:08:11.205Z,41.17
2022-11-30T01:13:14.712Z,39.85
2022-11-30T01:18:19.488Z,41.38
2022-11-30T01:23:23.138Z,39.92
2022-11-30T01:28:26.492Z,39.08
2022-11-30T01:33:31.649Z,38.92
2022-11-30T01:38:36.674Z,38.65
2022-11-30T01:43:42.489Z,40.60
2022-11-30T01:48:49.933Z,37.25
2022-11-30T01:53:53.343Z,38.53
2022-11-30T01:58:57.234Z,41.08
2022-11-30T02:04:08.374Z,39.30
2022-11-30T02:09:12.338Z,44.60
2022-11-30T02:14:28.279Z,43.10
2022-11-30T02:20:07.865Z,41.58
2022-11-30T02:25:21.204Z,41.38
2022-11-30T02:35:33.650Z,41.53
2022-11-30T02:40:37.173Z,43.65
2022-11-30T02:45:48.153Z,43.50
2022-11-30T02:50:55.313Z,46.53
2022-11-30T02:55:58.791Z,44.30
2022-11-30T03:01:03.862Z,40.70
2022-11-30T03:06:07.589Z,43.97
2022-11-30T03:11:11.211Z,41.28
2022-11-30T03:16:16.223Z,43.17
2022-11-30T03:21:19.562Z,46.80
2022-11-30T03:26:23.060Z,41.25
2022-11-30T03:31:27.953Z,41.85
2022-11-30T03:36:31.403Z,41.15
2022-11-30T03:41:34.996Z,38.95
2022-11-30T03:46:40.041Z,39.80
2022-11-30T03:51:43.536Z,40.45
2022-11-30T03:56:47.123Z,37.28
2022-11-30T04:01:51.877Z,44.08
2022-11-30T04:06:55.260Z,41.85
2022-11-30T04:11:59.070Z,37.60
2022-11-30T04:17:03.789Z,37.40
2022-11-30T04:22:07.467Z,40.95
2022-11-30T04:27:10.829Z,38.95
2022-11-30T04:32:15.803Z,41.38
2022-11-30T04:37:19.435Z,40.58
2022-11-30T04:42:22.806Z,42.35
2022-11-30T04:47:27.568Z,38.45
2022-11-30T04:52:30.983Z,41.33
2022-11-30T04:57:34.446Z,40.95
2022-11-30T05:02:39.651Z,37.05
2022-11-30T05:07:43.187Z,40.72
2022-11-30T05:12:46.647Z,36.10
2022-11-30T05:17:51.360Z,39.13
2022-11-30T05:22:54.998Z,37.75
2022-11-30T05:27:58.375Z,39.85
2022-11-30T05:33:03.427Z,36.38
2022-11-30T05:38:07.047Z,40.10
2022-11-30T05:43:10.708Z,37.88
2022-11-30T05:48:15.420Z,37.15
2022-11-30T05:53:19.082Z,32.10
2022-11-30T05:58:22.463Z,35.10
2022-11-30T06:03:29.097Z,33.33
2022-11-30T06:08:32.941Z,35.30
2022-11-30T06:13:36.533Z,36.08
2022-11-30T06:18:41.235Z,31.65
2022-11-30T06:23:44.639Z,32.35
2022-11-30T06:28:48.860Z,32.75
2022-11-30T06:33:57.108Z,34.67
2022-11-30T06:39:00.478Z,32.42
2022-11-30T06:44:04.085Z,29.92
2022-11-30T06:49:10.144Z,33.10
2022-11-30T06:54:13.626Z,33.15
2022-11-30T06:59:17.268Z,29.55
2022-11-30T07:04:22.238Z,32.92
2022-11-30T07:09:25.699Z,33.03
2022-11-30T07:14:30.532Z,34.88
2022-11-30T07:19:35.328Z,33.22
2022-11-30T07:24:56.162Z,32.47
2022-11-30T07:29:59.547Z,30.52
2022-11-30T07:35:04.393Z,31.35
2022-11-30T07:40:09.322Z,33.65
2022-11-30T07:45:13.068Z,32.08
2022-11-30T07:50:17.966Z,32.63
2022-11-30T07:55:23.590Z,32.33
2022-11-30T08:00:26.997Z,30.65
2022-11-30T08:05:31.842Z,32.40
2022-11-30T08:10:35.666Z,32.38
2022-11-30T08:15:39.188Z,33.17
2022-11-30T08:20:49.713Z,31.48
2022-11-30T08:25:53.452Z,31.95
2022-11-30T08:31:00.708Z,30.60
2022-11-30T08:36:09.624Z,31.15
2022-11-30T08:41:15.273Z,31.65
2022-11-30T08:46:49.752Z,30.17
2022-11-30T08:57:09.193Z,27.40
2022-11-30T09:02:14.113Z,29.13
2022-11-30T09:07:20.117Z,28.85
2022-11-30T09:12:23.611Z,30.48
2022-11-30T09:17:27.195Z,28.95
2022-11-30T09:22:31.937Z,29.40
2022-11-30T09:27:35.604Z,29.20
2022-11-30T09:32:39.243Z,31.33
2022-11-30T09:37:43.990Z,31.63
2022-11-30T09:42:55.566Z,31.98
2022-11-30T09:48:35.853Z,31.35
2022-11-30T09:53:44.299Z,34.13
2022-11-30T09:58:51.885Z,32.40
2022-11-30T10:03:55.255Z,34.80
2022-11-30T10:09:17.286Z,38.00
2022-11-30T10:14:45.790Z,33.55
2022-11-30T10:20:07.670Z,30.52
2022-11-30T10:25:30.258Z,29.60
2022-11-30T10:30:37.478Z,31.33
2022-11-30T10:35:44.035Z,27.58
2022-11-30T10:40:54.118Z,30.30
2022-11-30T10:45:57.503Z,30.70
2022-11-30T10:51:03.534Z,30.92
2022-11-30T10:56:12.229Z,32.53
2022-11-30T11:01:31.964Z,31.25
2022-11-30T11:06:35.798Z,31.00
2022-11-30T11:11:40.989Z,28.92
2022-11-30T11:16:57.124Z,28.88
2022-11-30T11:22:04.072Z,29.45
2022-11-30T11:27:19.667Z,30.17
2022-11-30T11:32:25.337Z,29.17
2022-11-30T11:37:31.530Z,33.17
2022-11-30T11:42:44.842Z,33.90
2022-11-30T11:53:14.925Z,29.25
2022-11-30T11:58:26.207Z,28.77
2022-11-30T12:03:38.296Z,30.45
2022-11-30T12:08:48.480Z,28.48
2022-11-30T12:13:54.049Z,27.73
2022-11-30T12:19:05.016Z,28.02
2022-11-30T12:24:35.484Z,27.10
2022-11-30T12:29:49.445Z,23.90
2022-11-30T12:35:08.607Z,26.33
2022-11-30T12:40:24.672Z,23.25
2022-11-30T12:45:35.959Z,27.35
2022-11-30T12:50:50.244Z,27.83
2022-11-30T12:56:03.271Z,26.60
2022-11-30T13:01:20.350Z,27.65
2022-11-30T13:06:30.433Z,25.77
2022-11-30T13:11:38.379Z,23.75
2022-11-30T13:16:45.187Z,23.02
2022-11-30T13:21:55.533Z,24.02
2022-11-30T13:27:02.956Z,23.92
2022-11-30T13:32:33.934Z,22.33
2022-11-30T13:37:41.324Z,24.60
2022-11-30T13:42:51.622Z,26.88
2022-11-30T13:47:58.214Z,27.98
2022-11-30T13:53:24.516Z,24.30
2022-11-30T13:58:28.875Z,21.52
2022-11-30T14:03:34.241Z,23.50
2022-11-30T14:08:39.464Z,25.77
2022-11-30T14:13:43.982Z,26.00
2022-11-30T14:18:50.092Z,24.45
2022-11-30T14:24:02.316Z,23.05
2022-11-30T14:29:16.816Z,23.50
2022-11-30T14:34:27.138Z,24.75
2022-11-30T14:39:35.100Z,23.45
2022-11-30T14:44:41.702Z,26.35
2022-11-30T14:49:52.198Z,24.70
2022-11-30T14:55:05.298Z,25.30
2022-11-30T15:00:17.355Z,24.77
2022-11-30T15:05:27.242Z,26.63
2022-11-30T15:10:34.091Z,24.63
2022-11-30T15:15:41.732Z,26.88
2022-11-30T15:20:52.748Z,27.60
2022-11-30T15:26:01.333Z,28.52
2022-11-30T15:31:08.164Z,28.33
2022-11-30T15:36:31.275Z,29.00
2022-11-30T15:46:46.370Z,26.88
2022-11-30T15:52:02.324Z,26.90
2022-11-30T15:57:09.001Z,26.25
2022-11-30T16:02:32.296Z,27.88
2022-11-30T16:07:39.336Z,26.17
2022-11-30T16:12:44.589Z,26.08
2022-11-30T16:17:47.952Z,26.15
2022-11-30T16:22:53.271Z,28.63
2022-11-30T16:27:56.593Z,31.05
2022-11-30T16:32:59.943Z,28.98
2022-11-30T16:38:04.955Z,29.15
2022-11-30T16:43:11.121Z,29.60
2022-11-30T16:48:15.185Z,30.92
2022-11-30T16:53:20.639Z,28.63
2022-11-30T16:58:25.241Z,29.80
2022-11-30T17:03:32.420Z,27.35
2022-11-30T17:08:37.226Z,29.45
2022-11-30T17:13:40.611Z,28.02
2022-11-30T17:18:44.476Z,26.75
2022-11-30T17:23:50.049Z,29.13
2022-11-30T17:28:53.633Z,28.52
2022-11-30T17:33:56.997Z,26.33
2022-11-30T17:39:06.026Z,26.65
2022-11-30T17:44:10.737Z,27.27
2022-11-30T17:49:14.233Z,28.65
2022-11-30T17:54:18.980Z,28.10
2022-11-30T17:59:22.800Z,29.05
2022-11-30T18:04:26.372Z,28.52
2022-11-30T18:09:31.088Z,29.73
2022-11-30T18:14:34.510Z,27.10
2022-11-30T18:19:38.392Z,28.92
2022-11-30T18:24:43.487Z,26.90
2022-11-30T18:29:46.872Z,28.27
2022-11-30T18:34:50.542Z,25.10
2022-11-30T18:39:55.459Z,29.33
2022-11-30T18:44:58.864Z,28.52
2022-11-30T18:50:02.291Z,28.42
2022-11-30T18:55:07.866Z,26.58
2022-11-30T19:00:12.176Z,27.98
2022-11-30T19:05:31.770Z,27.42
2022-11-30T19:10:39.690Z,29.08
2022-11-30T19:15:45.233Z,28.25
2022-11-30T19:20:51.037Z,28.90
2022-11-30T19:26:02.901Z,28.23
2022-11-30T19:31:10.419Z,28.13
2022-11-30T19:36:17.282Z,31.10
2022-11-30T19:41:24.661Z,29.58
2022-11-30T19:46:30.927Z,29.30
2022-11-30T19:51:36.109Z,27.65
2022-11-30T19:56:43.642Z,28.10
2022-11-30T20:01:49.650Z,28.00
2022-11-30T20:06:54.653Z,27.58
2022-11-30T20:12:00.204Z,27.10
2022-11-30T20:17:03.869Z,28.60
2022-11-30T20:22:09.603Z,28.73
2022-11-30T20:27:22.307Z,27.88
2022-11-30T20:32:26.024Z,29.27
2022-11-30T20:37:29.530Z,28.02
2022-11-30T20:42:34.533Z,28.25
2022-11-30T20:47:38.060Z,29.13
2022-11-30T20:52:41.829Z,25.90
2022-11-30T20:57:48.198Z,25.10
2022-11-30T21:02:51.944Z,27.00
2022-11-30T21:07:55.443Z,22.90
2022-11-30T21:13:00.527Z,23.75
2022-11-30T21:18:03.901Z,23.77
2022-11-30T21:23:07.331Z,24.77
2022-11-30T21:28:12.557Z,27.50
2022-11-30T21:33:15.997Z,24.77
2022-11-30T21:38:19.692Z,24.88
2022-11-30T21:43:24.513Z,25.85
2022-11-30T21:48:30.393Z,23.80
2022-11-30T21:53:38.145Z,23.83
2022-11-30T21:58:44.779Z,24.88
2022-11-30T22:03:48.334Z,29.27
2022-11-30T22:08:52.370Z,25.35
2022-11-30T22:13:57.552Z,24.83
2022-11-30T22:19:01.215Z,24.55
2022-11-30T22:24:06.988Z,24.08
2022-11-30T22:29:15.231Z,23.15
2022-11-30T22:34:18.864Z,24.85
2022-11-30T22:39:22.906Z,23.92
2022-11-30T22:44:27.938Z,24.20
2022-11-30T22:49:31.384Z,24.13
2022-11-30T22:54:34.892Z,23.85
2022-11-30T22:59:39.649Z,25.42
2022-11-30T23:04:43.076Z,23.92
2022-11-30T23:09:46.979Z,26.25
2022-11-30T23:14:51.955Z,26.13
2022-11-30T23:19:55.354Z,25.38
2022-11-30T23:24:58.660Z,23.20
2022-11-30T23:30:03.700Z,22.95
2022-11-30T23:35:07.644Z,24.80
2022-11-30T23:40:12.435Z,25.48
2022-11-30T23:45:17.574Z,24.55
2022-11-30T23:50:20.918Z,24.40
2022-11-30T23:55:24.537Z,23.60
